sensor_id;sensor_type;location;lat;lon;timestamp;pressure;altitude;pressure_sealevel;temperature;humidity
66381;BME280;53177;52.648;1.214;2023-01-08T00:00:45;99208.69;;;6.10;84.68
66381;BME280;53177;52.648;1.214;2023-01-08T00:03:11;99212.19;;;6.11;84.98
66381;BME280;53177;52.648;1.214;2023-01-08T00:05:37;99210.53;;;6.08;84.93
66381;BME280;53177;52.648;1.214;2023-01-08T00:08:03;99207.94;;;6.07;85.77
66381;BME280;53177;52.648;1.214;2023-01-08T00:10:29;99202.59;;;6.10;85.11
66381;BME280;53177;52.648;1.214;2023-01-08T00:12:55;99195.59;;;6.10;85.03
66381;BME280;53177;52.648;1.214;2023-01-08T00:15:21;99201.78;;;6.08;85.62
66381;BME280;53177;52.648;1.214;2023-01-08T00:17:46;99203.75;;;6.01;85.71
66381;BME280;53177;52.648;1.214;2023-01-08T00:20:13;99194.09;;;6.02;85.99
66381;BME280;53177;52.648;1.214;2023-01-08T00:22:39;99193.28;;;6.00;86.39
66381;BME280;53177;52.648;1.214;2023-01-08T00:25:05;99195.97;;;5.98;85.95
66381;BME280;53177;52.648;1.214;2023-01-08T00:27:30;99187.31;;;5.95;85.72
66381;BME280;53177;52.648;1.214;2023-01-08T00:29:56;99200.38;;;5.96;85.79
66381;BME280;53177;52.648;1.214;2023-01-08T00:32:21;99200.56;;;5.90;86.14
66381;BME280;53177;52.648;1.214;2023-01-08T00:34:46;99198.91;;;5.84;86.88
66381;BME280;53177;52.648;1.214;2023-01-08T00:37:13;99198.03;;;5.85;86.73
66381;BME280;53177;52.648;1.214;2023-01-08T00:39:39;99194.63;;;5.82;86.61
66381;BME280;53177;52.648;1.214;2023-01-08T00:42:05;99196.44;;;5.80;86.18
66381;BME280;53177;52.648;1.214;2023-01-08T00:44:30;99187.66;;;5.81;86.75
66381;BME280;53177;52.648;1.214;2023-01-08T00:46:55;99187.63;;;5.82;86.50
66381;BME280;53177;52.648;1.214;2023-01-08T00:49:21;99185.13;;;5.78;86.46
66381;BME280;53177;52.648;1.214;2023-01-08T00:51:46;99185.09;;;5.79;86.55
66381;BME280;53177;52.648;1.214;2023-01-08T00:54:12;99181.63;;;5.77;86.66
66381;BME280;53177;52.648;1.214;2023-01-08T00:56:37;99190.47;;;5.75;86.85
66381;BME280;53177;52.648;1.214;2023-01-08T00:59:02;99191.19;;;5.80;86.37
66381;BME280;53177;52.648;1.214;2023-01-08T01:01:28;99189.41;;;5.80;86.53
66381;BME280;53177;52.648;1.214;2023-01-08T01:03:53;99185.00;;;5.82;86.38
66381;BME280;53177;52.648;1.214;2023-01-08T01:06:19;99185.91;;;5.81;86.68
66381;BME280;53177;52.648;1.214;2023-01-08T01:08:44;99183.19;;;5.84;86.43
66381;BME280;53177;52.648;1.214;2023-01-08T01:11:18;99185.81;;;5.86;86.84
66381;BME280;53177;52.648;1.214;2023-01-08T01:13:44;99176.09;;;5.90;86.45
66381;BME280;53177;52.648;1.214;2023-01-08T01:16:09;99170.84;;;5.90;86.29
66381;BME280;53177;52.648;1.214;2023-01-08T01:18:34;99178.59;;;5.94;86.61
66381;BME280;53177;52.648;1.214;2023-01-08T01:21:00;99176.81;;;5.95;86.21
66381;BME280;53177;52.648;1.214;2023-01-08T01:23:25;99173.34;;;5.94;86.27
66381;BME280;53177;52.648;1.214;2023-01-08T01:25:51;99167.16;;;5.95;86.92
66381;BME280;53177;52.648;1.214;2023-01-08T01:28:18;99161.84;;;5.98;86.37
66381;BME280;53177;52.648;1.214;2023-01-08T01:30:44;99180.25;;;5.97;86.46
66381;BME280;53177;52.648;1.214;2023-01-08T01:33:09;99173.38;;;5.93;87.11
66381;BME280;53177;52.648;1.214;2023-01-08T01:35:34;99172.47;;;5.94;86.82
66381;BME280;53177;52.648;1.214;2023-01-08T01:38:00;99175.19;;;5.91;87.20
66381;BME280;53177;52.648;1.214;2023-01-08T01:40:26;99165.50;;;5.93;87.08
66381;BME280;53177;52.648;1.214;2023-01-08T01:42:52;99154.31;;;5.86;87.50
66381;BME280;53177;52.648;1.214;2023-01-08T01:45:19;99157.72;;;5.90;87.11
66381;BME280;53177;52.648;1.214;2023-01-08T01:48:03;99160.34;;;5.90;87.31
66381;BME280;53177;52.648;1.214;2023-01-08T01:53:09;99157.81;;;5.86;87.79
66381;BME280;53177;52.648;1.214;2023-01-08T01:55:38;99156.81;;;5.91;87.49
66381;BME280;53177;52.648;1.214;2023-01-08T01:58:13;99157.63;;;5.93;87.80
66381;BME280;53177;52.648;1.214;2023-01-08T02:00:39;99160.97;;;5.98;87.07
66381;BME280;53177;52.648;1.214;2023-01-08T02:03:07;99159.25;;;5.97;87.38
66381;BME280;53177;52.648;1.214;2023-01-08T02:08:59;99159.22;;;5.98;87.70
66381;BME280;53177;52.648;1.214;2023-01-08T02:28:10;99167.16;;;5.95;88.21
66381;BME280;53177;52.648;1.214;2023-01-08T02:30:35;99160.16;;;5.96;88.33
66381;BME280;53177;52.648;1.214;2023-01-08T02:33:01;99155.84;;;5.95;88.70
66381;BME280;53177;52.648;1.214;2023-01-08T02:35:44;99153.97;;;5.98;88.81
66381;BME280;53177;52.648;1.214;2023-01-08T02:38:15;99157.41;;;6.00;88.50
66381;BME280;53177;52.648;1.214;2023-01-08T02:41:06;99147.78;;;6.01;88.82
66381;BME280;53177;52.648;1.214;2023-01-08T02:46:00;99146.09;;;5.98;88.92
66381;BME280;53177;52.648;1.214;2023-01-08T02:48:38;99141.56;;;6.03;88.80
66381;BME280;53177;52.648;1.214;2023-01-08T02:51:18;99145.03;;;6.05;88.87
66381;BME280;53177;52.648;1.214;2023-01-08T02:53:50;99144.97;;;6.07;88.63
66381;BME280;53177;52.648;1.214;2023-01-08T02:56:23;99148.50;;;6.06;88.29
66381;BME280;53177;52.648;1.214;2023-01-08T02:58:51;99134.44;;;6.08;88.55
66381;BME280;53177;52.648;1.214;2023-01-08T03:01:20;99140.47;;;6.10;89.02
66381;BME280;53177;52.648;1.214;2023-01-08T03:03:50;99143.09;;;6.10;88.30
66381;BME280;53177;52.648;1.214;2023-01-08T03:06:20;99142.41;;;6.05;88.86
66381;BME280;53177;52.648;1.214;2023-01-08T03:08:48;99136.22;;;6.06;88.47
66381;BME280;53177;52.648;1.214;2023-01-08T03:11:16;99140.44;;;6.12;89.10
66381;BME280;53177;52.648;1.214;2023-01-08T03:13:50;99138.63;;;6.14;88.34
66381;BME280;53177;52.648;1.214;2023-01-08T03:16:29;99130.81;;;6.12;88.97
66381;BME280;53177;52.648;1.214;2023-01-08T03:19:30;99137.59;;;6.19;88.87
66381;BME280;53177;52.648;1.214;2023-01-08T03:21:57;99138.34;;;6.23;88.78
66381;BME280;53177;52.648;1.214;2023-01-08T03:24:27;99126.13;;;6.22;88.73
66381;BME280;53177;52.648;1.214;2023-01-08T03:26:57;99135.69;;;6.24;89.32
66381;BME280;53177;52.648;1.214;2023-01-08T03:29:23;99129.34;;;6.31;88.42
66381;BME280;53177;52.648;1.214;2023-01-08T03:31:58;99122.91;;;6.42;88.40
66381;BME280;53177;52.648;1.214;2023-01-08T03:34:27;99125.38;;;6.46;88.25
66381;BME280;53177;52.648;1.214;2023-01-08T03:36:56;99118.19;;;6.51;88.48
66381;BME280;53177;52.648;1.214;2023-01-08T03:39:51;99115.56;;;6.51;88.12
66381;BME280;53177;52.648;1.214;2023-01-08T03:42:20;99117.25;;;6.54;88.18
66381;BME280;53177;52.648;1.214;2023-01-08T03:44:46;99104.13;;;6.54;87.88
66381;BME280;53177;52.648;1.214;2023-01-08T03:47:12;99101.56;;;6.51;88.42
66381;BME280;53177;52.648;1.214;2023-01-08T03:49:39;99094.53;;;6.53;88.15
66381;BME280;53177;52.648;1.214;2023-01-08T03:52:07;99089.41;;;6.48;88.13
66381;BME280;53177;52.648;1.214;2023-01-08T03:54:35;99107.00;;;6.46;88.71
66381;BME280;53177;52.648;1.214;2023-01-08T03:57:01;99092.91;;;6.49;89.13
66381;BME280;53177;52.648;1.214;2023-01-08T03:59:27;99099.13;;;6.46;89.22
66381;BME280;53177;52.648;1.214;2023-01-08T04:01:53;99105.13;;;6.50;88.98
66381;BME280;53177;52.648;1.214;2023-01-08T04:04:18;99103.16;;;6.56;88.03
66381;BME280;53177;52.648;1.214;2023-01-08T04:06:44;99097.16;;;6.53;89.07
66381;BME280;53177;52.648;1.214;2023-01-08T04:09:09;99102.34;;;6.54;88.60
66381;BME280;53177;52.648;1.214;2023-01-08T04:11:35;99095.31;;;6.55;88.78
66381;BME280;53177;52.648;1.214;2023-01-08T04:14:01;99084.81;;;6.55;88.38
66381;BME280;53177;52.648;1.214;2023-01-08T04:16:26;99088.31;;;6.55;88.47
66381;BME280;53177;52.648;1.214;2023-01-08T04:18:52;99091.03;;;6.52;88.81
66381;BME280;53177;52.648;1.214;2023-01-08T04:21:17;99083.19;;;6.51;88.55
66381;BME280;53177;52.648;1.214;2023-01-08T04:23:43;99084.28;;;6.45;88.51
66381;BME280;53177;52.648;1.214;2023-01-08T04:26:08;99082.50;;;6.46;88.82
66381;BME280;53177;52.648;1.214;2023-01-08T04:28:34;99082.41;;;6.49;89.35
66381;BME280;53177;52.648;1.214;2023-01-08T04:31:04;99085.94;;;6.48;89.12
66381;BME280;53177;52.648;1.214;2023-01-08T04:33:30;99072.66;;;6.52;88.36
66381;BME280;53177;52.648;1.214;2023-01-08T04:35:55;99084.91;;;6.52;88.89
66381;BME280;53177;52.648;1.214;2023-01-08T04:38:20;99077.91;;;6.52;88.36
66381;BME280;53177;52.648;1.214;2023-01-08T04:40:46;99078.66;;;6.56;88.86
66381;BME280;53177;52.648;1.214;2023-01-08T04:43:11;99079.56;;;6.55;88.82
66381;BME280;53177;52.648;1.214;2023-01-08T04:45:37;99082.16;;;6.56;88.60
66381;BME280;53177;52.648;1.214;2023-01-08T04:48:02;99086.50;;;6.57;87.71
66381;BME280;53177;52.648;1.214;2023-01-08T04:50:28;99082.19;;;6.55;87.85
66381;BME280;53177;52.648;1.214;2023-01-08T04:52:54;99082.19;;;6.55;88.14
66381;BME280;53177;52.648;1.214;2023-01-08T04:55:22;99080.44;;;6.55;88.16
66381;BME280;53177;52.648;1.214;2023-01-08T04:57:48;99082.38;;;6.50;88.20
66381;BME280;53177;52.648;1.214;2023-01-08T05:00:14;99079.81;;;6.47;87.79
66381;BME280;53177;52.648;1.214;2023-01-08T05:02:41;99078.13;;;6.46;88.28
66381;BME280;53177;52.648;1.214;2023-01-08T05:05:06;99077.50;;;6.38;88.48
66381;BME280;53177;52.648;1.214;2023-01-08T05:07:32;99079.31;;;6.36;88.16
66381;BME280;53177;52.648;1.214;2023-01-08T05:09:57;99081.13;;;6.34;88.69
66381;BME280;53177;52.648;1.214;2023-01-08T05:12:23;99085.53;;;6.33;88.71
66381;BME280;53177;52.648;1.214;2023-01-08T05:14:48;99077.75;;;6.30;88.77
66381;BME280;53177;52.648;1.214;2023-01-08T05:17:13;99075.97;;;6.31;88.82
66381;BME280;53177;52.648;1.214;2023-01-08T05:19:39;99080.31;;;6.32;88.47
66381;BME280;53177;52.648;1.214;2023-01-08T05:22:05;99076.88;;;6.30;87.93
66381;BME280;53177;52.648;1.214;2023-01-08T05:24:30;99073.25;;;6.34;87.58
66381;BME280;53177;52.648;1.214;2023-01-08T05:26:55;99080.25;;;6.33;87.50
66381;BME280;53177;52.648;1.214;2023-01-08T05:29:21;99075.97;;;6.31;87.80
66381;BME280;53177;52.648;1.214;2023-01-08T05:31:46;99068.03;;;6.32;87.74
66381;BME280;53177;52.648;1.214;2023-01-08T05:34:12;99074.41;;;6.25;88.13
66381;BME280;53177;52.648;1.214;2023-01-08T05:36:37;99074.47;;;6.24;87.60
66381;BME280;53177;52.648;1.214;2023-01-08T05:39:03;99074.47;;;6.24;88.41
66381;BME280;53177;52.648;1.214;2023-01-08T05:41:28;99067.34;;;6.27;87.58
66381;BME280;53177;52.648;1.214;2023-01-08T05:43:54;99070.84;;;6.28;86.99
66381;BME280;53177;52.648;1.214;2023-01-08T05:46:19;99069.03;;;6.28;86.63
66381;BME280;53177;52.648;1.214;2023-01-08T05:48:44;99070.06;;;6.24;86.90
66381;BME280;53177;52.648;1.214;2023-01-08T05:51:10;99065.41;;;6.32;86.48
66381;BME280;53177;52.648;1.214;2023-01-08T05:53:35;99068.88;;;6.34;86.29
66381;BME280;53177;52.648;1.214;2023-01-08T05:56:06;99069.00;;;6.30;86.11
66381;BME280;53177;52.648;1.214;2023-01-08T05:58:32;99066.38;;;6.30;85.92
66381;BME280;53177;52.648;1.214;2023-01-08T06:01:15;99066.47;;;6.27;85.61
66381;BME280;53177;52.648;1.214;2023-01-08T06:03:41;99061.34;;;6.24;85.35
66381;BME280;53177;52.648;1.214;2023-01-08T06:06:08;99062.13;;;6.26;85.60
66381;BME280;53177;52.648;1.214;2023-01-08T06:08:34;99062.25;;;6.23;85.44
66381;BME280;53177;52.648;1.214;2023-01-08T06:11:01;99069.22;;;6.24;85.10
66381;BME280;53177;52.648;1.214;2023-01-08T06:13:29;99070.22;;;6.20;85.89
66381;BME280;53177;52.648;1.214;2023-01-08T06:15:56;99069.44;;;6.16;85.95
66381;BME280;53177;52.648;1.214;2023-01-08T06:18:22;99059.09;;;6.12;86.33
66381;BME280;53177;52.648;1.214;2023-01-08T06:20:47;99055.56;;;6.13;85.83
66381;BME280;53177;52.648;1.214;2023-01-08T06:23:12;99047.72;;;6.11;85.21
66381;BME280;53177;52.648;1.214;2023-01-08T06:25:38;99057.22;;;6.15;85.04
66381;BME280;53177;52.648;1.214;2023-01-08T06:28:03;99039.72;;;6.16;85.32
66381;BME280;53177;52.648;1.214;2023-01-08T06:30:30;99039.91;;;6.10;85.51
66381;BME280;53177;52.648;1.214;2023-01-08T06:32:56;99039.06;;;6.09;85.28
66381;BME280;53177;52.648;1.214;2023-01-08T06:35:22;99047.94;;;6.05;85.35
66381;BME280;53177;52.648;1.214;2023-01-08T06:37:47;99040.22;;;5.99;85.83
66381;BME280;53177;52.648;1.214;2023-01-08T06:40:13;99038.56;;;5.97;85.69
66381;BME280;53177;52.648;1.214;2023-01-08T06:42:39;99040.31;;;5.98;86.20
66381;BME280;53177;52.648;1.214;2023-01-08T06:45:05;99039.44;;;5.97;86.54
66381;BME280;53177;52.648;1.214;2023-01-08T06:47:32;99030.72;;;5.97;86.84
66381;BME280;53177;52.648;1.214;2023-01-08T06:49:57;99026.31;;;5.97;87.15
66381;BME280;53177;52.648;1.214;2023-01-08T06:52:23;99024.66;;;5.95;87.49
66381;BME280;53177;52.648;1.214;2023-01-08T06:54:49;99022.09;;;5.92;87.52
66381;BME280;53177;52.648;1.214;2023-01-08T06:57:15;99046.47;;;5.95;87.59
66381;BME280;53177;52.648;1.214;2023-01-08T06:59:40;99023.69;;;5.97;87.37
66381;BME280;53177;52.648;1.214;2023-01-08T07:02:05;99030.91;;;5.91;87.98
66381;BME280;53177;52.648;1.214;2023-01-08T07:04:31;99021.22;;;5.93;88.37
66381;BME280;53177;52.648;1.214;2023-01-08T07:06:56;99025.56;;;5.94;88.49
66381;BME280;53177;52.648;1.214;2023-01-08T07:09:22;99022.88;;;5.95;87.95
66381;BME280;53177;52.648;1.214;2023-01-08T07:11:47;99017.72;;;5.92;87.36
66381;BME280;53177;52.648;1.214;2023-01-08T07:14:13;99026.56;;;5.90;88.21
66381;BME280;53177;52.648;1.214;2023-01-08T07:16:38;99034.28;;;5.94;87.76
66381;BME280;53177;52.648;1.214;2023-01-08T07:19:04;99032.44;;;5.98;87.47
66381;BME280;53177;52.648;1.214;2023-01-08T07:21:29;99028.28;;;5.91;87.88
66381;BME280;53177;52.648;1.214;2023-01-08T07:23:55;99031.81;;;5.90;88.07
66381;BME280;53177;52.648;1.214;2023-01-08T07:26:20;99036.09;;;5.92;87.80
66381;BME280;53177;52.648;1.214;2023-01-08T07:28:46;99032.66;;;5.90;87.70
66381;BME280;53177;52.648;1.214;2023-01-08T07:31:13;99023.72;;;5.96;87.42
66381;BME280;53177;52.648;1.214;2023-01-08T07:33:44;99027.09;;;6.01;87.01
66381;BME280;53177;52.648;1.214;2023-01-08T07:36:18;99021.00;;;5.99;86.05
66381;BME280;53177;52.648;1.214;2023-01-08T07:38:49;99014.16;;;5.95;86.40
66381;BME280;53177;52.648;1.214;2023-01-08T07:41:17;99007.31;;;5.91;86.27
66381;BME280;53177;52.648;1.214;2023-01-08T07:43:52;99010.84;;;5.88;86.25
66381;BME280;53177;52.648;1.214;2023-01-08T07:46:23;98998.66;;;5.85;86.47
66381;BME280;53177;52.648;1.214;2023-01-08T07:48:52;99007.44;;;5.84;86.57
66381;BME280;53177;52.648;1.214;2023-01-08T07:51:21;99006.69;;;5.81;86.56
66381;BME280;53177;52.648;1.214;2023-01-08T07:53:49;98999.56;;;5.86;86.40
66381;BME280;53177;52.648;1.214;2023-01-08T07:56:24;98995.13;;;5.88;86.22
66381;BME280;53177;52.648;1.214;2023-01-08T07:58:52;98991.88;;;5.80;86.42
66381;BME280;53177;52.648;1.214;2023-01-08T08:01:20;98997.03;;;5.81;86.91
66381;BME280;53177;52.648;1.214;2023-01-08T08:03:48;98992.66;;;5.82;86.51
66381;BME280;53177;52.648;1.214;2023-01-08T08:06:13;98992.56;;;5.85;86.69
66381;BME280;53177;52.648;1.214;2023-01-08T08:08:40;98997.81;;;5.85;86.81
66381;BME280;53177;52.648;1.214;2023-01-08T08:11:05;98994.44;;;5.81;86.58
66381;BME280;53177;52.648;1.214;2023-01-08T08:13:31;98999.75;;;5.80;87.21
66381;BME280;53177;52.648;1.214;2023-01-08T08:16:01;98996.25;;;5.79;87.15
66381;BME280;53177;52.648;1.214;2023-01-08T08:18:27;98997.03;;;5.81;86.65
66381;BME280;53177;52.648;1.214;2023-01-08T08:20:52;99000.63;;;5.79;87.41
66381;BME280;53177;52.648;1.214;2023-01-08T08:23:18;98996.25;;;5.79;87.06
66381;BME280;53177;52.648;1.214;2023-01-08T08:25:43;98995.28;;;5.82;87.42
66381;BME280;53177;52.648;1.214;2023-01-08T08:28:10;98998.72;;;5.84;88.01
66381;BME280;53177;52.648;1.214;2023-01-08T08:30:36;98992.63;;;5.83;87.52
66381;BME280;53177;52.648;1.214;2023-01-08T08:33:04;98996.09;;;5.84;87.80
66381;BME280;53177;52.648;1.214;2023-01-08T08:35:31;98993.44;;;5.87;87.30
66381;BME280;53177;52.648;1.214;2023-01-08T08:37:57;98991.78;;;5.83;87.83
66381;BME280;53177;52.648;1.214;2023-01-08T08:40:24;98996.94;;;5.84;87.67
66381;BME280;53177;52.648;1.214;2023-01-08T08:42:55;98995.13;;;5.88;87.83
66381;BME280;53177;52.648;1.214;2023-01-08T08:45:21;98997.81;;;5.86;88.04
66381;BME280;53177;52.648;1.214;2023-01-08T08:47:46;99002.19;;;5.86;88.18
66381;BME280;53177;52.648;1.214;2023-01-08T08:50:13;98997.81;;;5.86;88.48
66381;BME280;53177;52.648;1.214;2023-01-08T08:52:38;98986.31;;;5.91;87.85
66381;BME280;53177;52.648;1.214;2023-01-08T08:55:04;98987.88;;;5.96;87.28
66381;BME280;53177;52.648;1.214;2023-01-08T08:57:30;98989.59;;;5.97;87.57
66381;BME280;53177;52.648;1.214;2023-01-08T08:59:55;98991.31;;;5.98;88.13
66381;BME280;53177;52.648;1.214;2023-01-08T09:02:21;98992.22;;;5.97;88.12
66381;BME280;53177;52.648;1.214;2023-01-08T09:04:46;98991.22;;;6.01;88.07
66381;BME280;53177;52.648;1.214;2023-01-08T09:07:11;98988.44;;;6.06;88.10
66381;BME280;53177;52.648;1.214;2023-01-08T09:09:37;98990.97;;;6.09;87.82
66381;BME280;53177;52.648;1.214;2023-01-08T09:12:02;98976.84;;;6.13;87.54
66381;BME280;53177;52.648;1.214;2023-01-08T09:14:28;98972.41;;;6.15;87.70
66381;BME280;53177;52.648;1.214;2023-01-08T09:16:53;98966.03;;;6.22;87.31
66381;BME280;53177;52.648;1.214;2023-01-08T09:19:19;98962.34;;;6.27;87.42
66381;BME280;53177;52.648;1.214;2023-01-08T09:21:44;98963.13;;;6.31;87.15
66381;BME280;53177;52.648;1.214;2023-01-08T09:24:10;98964.66;;;6.36;86.67
66381;BME280;53177;52.648;1.214;2023-01-08T09:26:36;98964.47;;;6.43;86.69
66381;BME280;53177;52.648;1.214;2023-01-08T09:29:01;98959.38;;;6.38;86.75
66381;BME280;53177;52.648;1.214;2023-01-08T09:31:27;98959.38;;;6.38;86.44
66381;BME280;53177;52.648;1.214;2023-01-08T09:33:52;98955.63;;;6.45;86.48
66381;BME280;53177;52.648;1.214;2023-01-08T09:36:18;98954.72;;;6.46;86.65
66381;BME280;53177;52.648;1.214;2023-01-08T09:38:44;98946.66;;;6.51;86.39
66381;BME280;53177;52.648;1.214;2023-01-08T09:41:21;98951.75;;;6.55;86.36
66381;BME280;53177;52.648;1.214;2023-01-08T09:43:51;98945.22;;;6.67;86.14
66381;BME280;53177;52.648;1.214;2023-01-08T09:46:20;98958.19;;;6.71;85.94
66381;BME280;53177;52.648;1.214;2023-01-08T09:48:47;98946.72;;;6.74;86.15
66381;BME280;53177;52.648;1.214;2023-01-08T09:51:15;98933.53;;;6.75;85.95
66381;BME280;53177;52.648;1.214;2023-01-08T09:53:42;98949.94;;;6.82;86.23
66381;BME280;53177;52.648;1.214;2023-01-08T09:56:18;98946.22;;;6.88;85.70
66381;BME280;53177;52.648;1.214;2023-01-08T10:01:19;98926.59;;;6.98;85.85
66381;BME280;53177;52.648;1.214;2023-01-08T10:04:19;98924.63;;;7.03;85.48
66381;BME280;53177;52.648;1.214;2023-01-08T10:06:56;98929.81;;;7.06;85.61
66381;BME280;53177;52.648;1.214;2023-01-08T10:09:27;98925.50;;;7.03;85.21
66381;BME280;53177;52.648;1.214;2023-01-08T10:11:57;98926.41;;;7.02;85.28
66381;BME280;53177;52.648;1.214;2023-01-08T10:14:33;98927.78;;;7.12;85.06
66381;BME280;53177;52.648;1.214;2023-01-08T10:17:06;98931.91;;;7.19;84.44
66381;BME280;53177;52.648;1.214;2023-01-08T10:19:32;98930.19;;;7.18;84.56
66381;BME280;53177;52.648;1.214;2023-01-08T10:21:58;98929.00;;;7.27;84.67
66381;BME280;53177;52.648;1.214;2023-01-08T10:24:35;98925.03;;;7.39;84.15
66381;BME280;53177;52.648;1.214;2023-01-08T10:27:22;98933.28;;;7.51;84.00
66381;BME280;53177;52.648;1.214;2023-01-08T10:29:51;98919.34;;;7.49;83.61
66381;BME280;53177;52.648;1.214;2023-01-08T10:32:31;98918.31;;;7.53;83.61
66381;BME280;53177;52.648;1.214;2023-01-08T10:35:03;98913.28;;;7.47;83.07
66381;BME280;53177;52.648;1.214;2023-01-08T10:37:37;98915.91;;;7.47;83.56
66381;BME280;53177;52.648;1.214;2023-01-08T10:40:16;98912.13;;;7.54;83.70
66381;BME280;53177;52.648;1.214;2023-01-08T10:42:45;98916.22;;;7.61;83.10
66381;BME280;53177;52.648;1.214;2023-01-08T10:45:21;98910.66;;;7.69;82.78
66381;BME280;53177;52.648;1.214;2023-01-08T10:47:50;98911.22;;;7.55;83.24
66381;BME280;53177;52.648;1.214;2023-01-08T10:50:24;98908.53;;;7.57;83.57
66381;BME280;53177;52.648;1.214;2023-01-08T10:52:52;98903.75;;;7.66;83.11
66381;BME280;53177;52.648;1.214;2023-01-08T10:55:30;98899.03;;;7.74;83.23
66381;BME280;53177;52.648;1.214;2023-01-08T10:57:59;98897.59;;;7.67;83.10
66381;BME280;53177;52.648;1.214;2023-01-08T11:00:29;98890.56;;;7.88;83.29
66381;BME280;53177;52.648;1.214;2023-01-08T11:03:00;98894.66;;;7.95;82.39
66381;BME280;53177;52.648;1.214;2023-01-08T11:05:35;98883.28;;;7.95;82.29
66381;BME280;53177;52.648;1.214;2023-01-08T11:08:06;98879.69;;;7.97;82.65
66381;BME280;53177;52.648;1.214;2023-01-08T11:10:33;98885.00;;;7.96;82.52
66381;BME280;53177;52.648;1.214;2023-01-08T11:13:03;98869.06;;;7.99;82.56
66381;BME280;53177;52.648;1.214;2023-01-08T11:15:35;98860.72;;;8.09;82.41
66381;BME280;53177;52.648;1.214;2023-01-08T11:18:21;98864.16;;;8.11;82.23
66381;BME280;53177;52.648;1.214;2023-01-08T11:20:48;98853.22;;;8.20;82.06
66381;BME280;53177;52.648;1.214;2023-01-08T11:23:20;98863.16;;;8.14;81.87
66381;BME280;53177;52.648;1.214;2023-01-08T11:26:06;98848.28;;;8.35;82.18
66381;BME280;53177;52.648;1.214;2023-01-08T11:28:48;98844.22;;;8.46;81.65
66381;BME280;53177;52.648;1.214;2023-01-08T11:31:33;98848.72;;;8.44;81.12
66381;BME280;53177;52.648;1.214;2023-01-08T11:34:58;98844.13;;;8.49;80.95
66381;BME280;53177;52.648;1.214;2023-01-08T11:39:46;98838.03;;;8.67;81.36
66381;BME280;53177;52.648;1.214;2023-01-08T11:42:19;98832.53;;;8.53;80.90
66381;BME280;53177;52.648;1.214;2023-01-08T11:57:02;98812.56;;;8.48;81.06
66381;BME280;53177;52.648;1.214;2023-01-08T12:02:24;98797.63;;;8.48;81.34
66381;BME280;53177;52.648;1.214;2023-01-08T12:16:16;98794.97;;;8.28;82.38
66381;BME280;53177;52.648;1.214;2023-01-08T12:34:53;98745.88;;;8.27;82.99
66381;BME280;53177;52.648;1.214;2023-01-08T12:37:40;98745.69;;;8.31;82.86
66381;BME280;53177;52.648;1.214;2023-01-08T12:42:42;98728.00;;;8.35;82.88
66381;BME280;53177;52.648;1.214;2023-01-08T12:45:29;98718.59;;;8.29;83.17
66381;BME280;53177;52.648;1.214;2023-01-08T12:48:24;98711.41;;;8.33;83.60
66381;BME280;53177;52.648;1.214;2023-01-08T12:51:12;98707.19;;;8.29;83.57
66381;BME280;53177;52.648;1.214;2023-01-08T12:59:45;98700.56;;;8.39;83.61
66381;BME280;53177;52.648;1.214;2023-01-08T13:05:28;98673.16;;;8.43;83.66
66381;BME280;53177;52.648;1.214;2023-01-08T13:07:57;98673.63;;;8.34;83.81
66381;BME280;53177;52.648;1.214;2023-01-08T13:12:53;98650.47;;;8.41;83.83
66381;BME280;53177;52.648;1.214;2023-01-08T13:15:24;98654.88;;;8.40;83.33
66381;BME280;53177;52.648;1.214;2023-01-08T13:17:53;98641.66;;;8.42;83.69
66381;BME280;53177;52.648;1.214;2023-01-08T13:20:30;98634.59;;;8.42;83.70
66381;BME280;53177;52.648;1.214;2023-01-08T13:23:03;98633.50;;;8.46;83.61
66381;BME280;53177;52.648;1.214;2023-01-08T13:25:36;98634.31;;;8.48;83.10
66381;BME280;53177;52.648;1.214;2023-01-08T13:28:26;98618.66;;;8.45;82.60
66381;BME280;53177;52.648;1.214;2023-01-08T13:30:53;98623.84;;;8.47;82.48
66381;BME280;53177;52.648;1.214;2023-01-08T13:35:50;98612.53;;;8.45;81.56
66381;BME280;53177;52.648;1.214;2023-01-08T13:38:17;98609.91;;;8.45;82.40
66381;BME280;53177;52.648;1.214;2023-01-08T13:45:41;98629.06;;;7.72;87.18
66381;BME280;53177;52.648;1.214;2023-01-08T13:48:20;98641.78;;;7.22;87.83
66381;BME280;53177;52.648;1.214;2023-01-08T13:50:47;98614.16;;;6.92;88.26
66381;BME280;53177;52.648;1.214;2023-01-08T13:53:13;98619.72;;;6.84;88.39
66381;BME280;53177;52.648;1.214;2023-01-08T13:55:42;98590.22;;;6.77;88.53
66381;BME280;53177;52.648;1.214;2023-01-08T13:58:16;98587.88;;;6.71;89.06
66381;BME280;53177;52.648;1.214;2023-01-08T14:03:22;98604.28;;;6.55;89.96
66381;BME280;53177;52.648;1.214;2023-01-08T14:05:47;98571.00;;;6.55;90.62
66381;BME280;53177;52.648;1.214;2023-01-08T14:08:23;98600.88;;;6.53;90.22
66381;BME280;53177;52.648;1.214;2023-01-08T14:10:50;98600.81;;;6.54;91.28
66381;BME280;53177;52.648;1.214;2023-01-08T14:13:17;98612.91;;;6.36;90.73
66381;BME280;53177;52.648;1.214;2023-01-08T14:15:45;98600.47;;;6.20;92.45
66381;BME280;53177;52.648;1.214;2023-01-08T14:18:12;98596.84;;;6.22;92.54
66381;BME280;53177;52.648;1.214;2023-01-08T14:20:40;98597.72;;;6.23;92.86
66381;BME280;53177;52.648;1.214;2023-01-08T14:23:10;98589.78;;;6.24;93.13
66381;BME280;53177;52.648;1.214;2023-01-08T14:25:36;98598.41;;;6.28;92.97
66381;BME280;53177;52.648;1.214;2023-01-08T14:28:04;98595.50;;;6.34;93.80
66381;BME280;53177;52.648;1.214;2023-01-08T14:30:31;98614.78;;;6.33;93.17
66381;BME280;53177;52.648;1.214;2023-01-08T14:32:58;98627.47;;;6.22;92.75
66381;BME280;53177;52.648;1.214;2023-01-08T14:35:29;98624.59;;;5.83;91.96
66381;BME280;53177;52.648;1.214;2023-01-08T14:37:57;98606.66;;;5.71;92.18
66381;BME280;53177;52.648;1.214;2023-01-08T14:40:39;98592.97;;;5.63;92.96
66381;BME280;53177;52.648;1.214;2023-01-08T14:43:09;98583.06;;;5.71;92.99
66381;BME280;53177;52.648;1.214;2023-01-08T14:45:37;98567.47;;;5.68;92.85
66381;BME280;53177;52.648;1.214;2023-01-08T14:48:15;98575.31;;;5.68;93.05
66381;BME280;53177;52.648;1.214;2023-01-08T14:50:43;98555.13;;;5.70;93.10
66381;BME280;53177;52.648;1.214;2023-01-08T14:53:24;98561.19;;;5.72;93.14
66381;BME280;53177;52.648;1.214;2023-01-08T14:55:53;98547.66;;;5.82;93.09